sensor_id;sensor_type;location;lat;lon;timestamp;P1;durP1;ratioP1;P2;durP2;ratioP2
16119;SDS011;12670;53.502;10.252;2022-09-09T00:01:23;22.43;;;15.03;;
16119;SDS011;12670;53.502;10.252;2022-09-09T00:04:36;21.73;;;13.33;;
16119;SDS011;12670;53.502;10.252;2022-09-09T00:07:41;19.17;;;14.03;;
16119;SDS011;12670;53.502;10.252;2022-09-09T00:10:48;19.73;;;13.13;;
16119;SDS011;12670;53.502;10.252;2022-09-09T00:13:56;19.87;;;13.73;;
16119;SDS011;12670;53.502;10.252;2022-09-09T00:17:06;21.30;;;14.80;;
16119;SDS011;12670;53.502;10.252;2022-09-09T00:20:14;18.13;;;13.73;;
16119;SDS011;12670;53.502;10.252;2022-09-09T00:23:24;19.20;;;13.00;;
16119;SDS011;12670;53.502;10.252;2022-09-09T00:26:30;19.77;;;14.13;;
16119;SDS011;12670;53.502;10.252;2022-09-09T00:29:39;23.27;;;14.50;;
16119;SDS011;12670;53.502;10.252;2022-09-09T00:32:47;20.40;;;14.47;;
16119;SDS011;12670;53.502;10.252;2022-09-09T00:35:53;28.60;;;15.13;;
16119;SDS011;12670;53.502;10.252;2022-09-09T00:38:59;21.53;;;14.03;;
16119;SDS011;12670;53.502;10.252;2022-09-09T00:42:08;22.30;;;15.20;;
16119;SDS011;12670;53.502;10.252;2022-09-09T00:45:19;25.87;;;16.00;;
16119;SDS011;12670;53.502;10.252;2022-09-09T00:48:35;21.40;;;15.27;;
16119;SDS011;12670;53.502;10.252;2022-09-09T00:51:48;22.23;;;15.37;;
16119;SDS011;12670;53.502;10.252;2022-09-09T00:55:03;21.00;;;14.97;;
16119;SDS011;12670;53.502;10.252;2022-09-09T00:58:12;21.90;;;15.30;;
16119;SDS011;12670;53.502;10.252;2022-09-09T01:01:15;21.67;;;14.20;;
16119;SDS011;12670;53.502;10.252;2022-09-09T01:04:20;22.23;;;14.90;;
16119;SDS011;12670;53.502;10.252;2022-09-09T01:07:33;19.73;;;14.07;;
16119;SDS011;12670;53.502;10.252;2022-09-09T01:10:37;20.83;;;14.63;;
16119;SDS011;12670;53.502;10.252;2022-09-09T01:13:47;23.20;;;15.13;;
16119;SDS011;12670;53.502;10.252;2022-09-09T01:16:56;21.77;;;14.07;;
16119;SDS011;12670;53.502;10.252;2022-09-09T01:20:05;20.30;;;14.47;;
16119;SDS011;12670;53.502;10.252;2022-09-09T01:23:18;24.47;;;16.07;;
16119;SDS011;12670;53.502;10.252;2022-09-09T01:26:31;22.63;;;15.00;;
16119;SDS011;12670;53.502;10.252;2022-09-09T01:29:36;19.80;;;14.90;;
16119;SDS011;12670;53.502;10.252;2022-09-09T01:32:41;25.13;;;14.33;;
16119;SDS011;12670;53.502;10.252;2022-09-09T01:35:46;18.73;;;13.57;;
16119;SDS011;12670;53.502;10.252;2022-09-09T01:38:55;20.93;;;14.17;;
16119;SDS011;12670;53.502;10.252;2022-09-09T01:41:59;18.67;;;13.23;;
16119;SDS011;12670;53.502;10.252;2022-09-09T01:45:02;18.33;;;12.57;;
16119;SDS011;12670;53.502;10.252;2022-09-09T01:48:06;19.70;;;14.07;;
16119;SDS011;12670;53.502;10.252;2022-09-09T01:51:08;18.67;;;12.93;;
16119;SDS011;12670;53.502;10.252;2022-09-09T01:54:12;21.53;;;13.00;;
16119;SDS011;12670;53.502;10.252;2022-09-09T01:57:17;18.43;;;13.77;;
16119;SDS011;12670;53.502;10.252;2022-09-09T02:00:24;21.30;;;13.23;;
16119;SDS011;12670;53.502;10.252;2022-09-09T02:03:28;22.40;;;13.47;;
16119;SDS011;12670;53.502;10.252;2022-09-09T02:06:35;19.47;;;13.77;;
16119;SDS011;12670;53.502;10.252;2022-09-09T02:09:39;20.27;;;14.17;;
16119;SDS011;12670;53.502;10.252;2022-09-09T02:12:48;20.80;;;14.23;;
16119;SDS011;12670;53.502;10.252;2022-09-09T02:15:56;20.17;;;13.73;;
16119;SDS011;12670;53.502;10.252;2022-09-09T02:19:03;21.13;;;14.53;;
16119;SDS011;12670;53.502;10.252;2022-09-09T02:22:11;19.90;;;13.43;;
16119;SDS011;12670;53.502;10.252;2022-09-09T02:25:15;18.13;;;13.27;;
16119;SDS011;12670;53.502;10.252;2022-09-09T02:28:23;18.70;;;13.17;;
16119;SDS011;12670;53.502;10.252;2022-09-09T02:31:28;19.83;;;13.50;;
16119;SDS011;12670;53.502;10.252;2022-09-09T02:34:33;18.80;;;12.77;;
16119;SDS011;12670;53.502;10.252;2022-09-09T02:37:41;18.03;;;12.57;;
16119;SDS011;12670;53.502;10.252;2022-09-09T02:40:47;18.87;;;12.67;;
16119;SDS011;12670;53.502;10.252;2022-09-09T02:43:51;18.93;;;12.77;;
16119;SDS011;12670;53.502;10.252;2022-09-09T02:46:58;19.57;;;12.57;;
16119;SDS011;12670;53.502;10.252;2022-09-09T02:50:15;18.83;;;13.20;;
16119;SDS011;12670;53.502;10.252;2022-09-09T02:53:20;16.07;;;11.87;;
16119;SDS011;12670;53.502;10.252;2022-09-09T02:56:31;18.83;;;12.27;;
16119;SDS011;12670;53.502;10.252;2022-09-09T02:59:42;19.70;;;12.30;;
16119;SDS011;12670;53.502;10.252;2022-09-09T03:02:46;17.83;;;13.00;;
16119;SDS011;12670;53.502;10.252;2022-09-09T03:05:48;15.57;;;11.87;;
16119;SDS011;12670;53.502;10.252;2022-09-09T03:08:51;17.13;;;12.60;;
16119;SDS011;12670;53.502;10.252;2022-09-09T03:11:53;18.10;;;12.50;;
16119;SDS011;12670;53.502;10.252;2022-09-09T03:14:58;17.80;;;11.63;;
16119;SDS011;12670;53.502;10.252;2022-09-09T03:18:01;15.67;;;12.13;;
16119;SDS011;12670;53.502;10.252;2022-09-09T03:21:03;19.27;;;12.93;;
16119;SDS011;12670;53.502;10.252;2022-09-09T03:24:06;19.40;;;12.60;;
16119;SDS011;12670;53.502;10.252;2022-09-09T03:27:08;15.57;;;11.77;;
16119;SDS011;12670;53.502;10.252;2022-09-09T03:30:12;18.80;;;12.47;;
16119;SDS011;12670;53.502;10.252;2022-09-09T03:33:16;18.10;;;13.23;;
16119;SDS011;12670;53.502;10.252;2022-09-09T03:36:18;17.50;;;12.10;;
16119;SDS011;12670;53.502;10.252;2022-09-09T03:39:21;18.37;;;12.23;;
16119;SDS011;12670;53.502;10.252;2022-09-09T03:42:26;18.97;;;11.97;;
16119;SDS011;12670;53.502;10.252;2022-09-09T03:45:35;15.27;;;11.63;;
16119;SDS011;12670;53.502;10.252;2022-09-09T03:48:37;15.37;;;11.43;;
16119;SDS011;12670;53.502;10.252;2022-09-09T03:51:40;18.53;;;11.40;;
16119;SDS011;12670;53.502;10.252;2022-09-09T03:54:42;16.23;;;12.03;;
16119;SDS011;12670;53.502;10.252;2022-09-09T03:57:45;15.57;;;11.40;;
16119;SDS011;12670;53.502;10.252;2022-09-09T04:00:53;16.60;;;11.93;;
16119;SDS011;12670;53.502;10.252;2022-09-09T04:03:57;18.67;;;12.00;;
16119;SDS011;12670;53.502;10.252;2022-09-09T04:07:00;16.70;;;11.80;;
16119;SDS011;12670;53.502;10.252;2022-09-09T04:10:02;16.53;;;11.67;;
16119;SDS011;12670;53.502;10.252;2022-09-09T04:13:05;16.93;;;11.10;;
16119;SDS011;12670;53.502;10.252;2022-09-09T04:16:10;16.00;;;11.10;;
16119;SDS011;12670;53.502;10.252;2022-09-09T04:19:14;16.03;;;10.57;;
16119;SDS011;12670;53.502;10.252;2022-09-09T04:22:17;14.87;;;10.00;;
16119;SDS011;12670;53.502;10.252;2022-09-09T04:25:19;13.00;;;9.70;;
16119;SDS011;12670;53.502;10.252;2022-09-09T04:28:22;15.80;;;10.60;;
16119;SDS011;12670;53.502;10.252;2022-09-09T04:31:27;17.20;;;9.80;;
16119;SDS011;12670;53.502;10.252;2022-09-09T04:34:30;15.67;;;10.13;;
16119;SDS011;12670;53.502;10.252;2022-09-09T04:37:33;15.27;;;9.73;;
16119;SDS011;12670;53.502;10.252;2022-09-09T04:40:36;14.33;;;9.23;;
16119;SDS011;12670;53.502;10.252;2022-09-09T04:43:44;15.63;;;8.93;;
16119;SDS011;12670;53.502;10.252;2022-09-09T04:46:48;13.03;;;8.80;;
16119;SDS011;12670;53.502;10.252;2022-09-09T04:49:50;13.80;;;9.57;;
16119;SDS011;12670;53.502;10.252;2022-09-09T04:52:55;16.83;;;9.37;;
16119;SDS011;12670;53.502;10.252;2022-09-09T04:56:01;15.77;;;9.30;;
16119;SDS011;12670;53.502;10.252;2022-09-09T04:59:05;13.27;;;8.77;;
16119;SDS011;12670;53.502;10.252;2022-09-09T05:02:09;12.83;;;8.40;;
16119;SDS011;12670;53.502;10.252;2022-09-09T05:05:12;14.63;;;7.83;;
16119;SDS011;12670;53.502;10.252;2022-09-09T05:08:14;12.03;;;7.70;;
16119;SDS011;12670;53.502;10.252;2022-09-09T05:11:18;11.07;;;8.07;;
16119;SDS011;12670;53.502;10.252;2022-09-09T05:14:21;12.60;;;6.93;;
16119;SDS011;12670;53.502;10.252;2022-09-09T05:17:26;11.17;;;7.13;;
16119;SDS011;12670;53.502;10.252;2022-09-09T05:20:28;10.07;;;7.57;;
16119;SDS011;12670;53.502;10.252;2022-09-09T05:23:32;11.17;;;7.40;;
16119;SDS011;12670;53.502;10.252;2022-09-09T05:26:35;10.10;;;7.43;;
16119;SDS011;12670;53.502;10.252;2022-09-09T05:29:37;9.80;;;7.30;;
16119;SDS011;12670;53.502;10.252;2022-09-09T05:32:43;9.13;;;6.63;;
16119;SDS011;12670;53.502;10.252;2022-09-09T05:35:46;8.97;;;6.77;;
16119;SDS011;12670;53.502;10.252;2022-09-09T05:38:50;8.90;;;6.67;;
16119;SDS011;12670;53.502;10.252;2022-09-09T05:41:54;10.47;;;6.50;;
16119;SDS011;12670;53.502;10.252;2022-09-09T05:44:58;9.27;;;6.33;;
16119;SDS011;12670;53.502;10.252;2022-09-09T05:48:02;8.07;;;5.80;;
16119;SDS011;12670;53.502;10.252;2022-09-09T05:51:05;9.00;;;5.73;;
16119;SDS011;12670;53.502;10.252;2022-09-09T05:54:09;11.23;;;5.83;;
16119;SDS011;12670;53.502;10.252;2022-09-09T05:57:12;10.10;;;5.80;;
16119;SDS011;12670;53.502;10.252;2022-09-09T06:00:14;11.47;;;5.40;;
16119;SDS011;12670;53.502;10.252;2022-09-09T06:03:18;10.30;;;5.30;;
16119;SDS011;12670;53.502;10.252;2022-09-09T06:06:25;9.77;;;5.20;;
16119;SDS011;12670;53.502;10.252;2022-09-09T06:09:28;7.63;;;4.60;;
16119;SDS011;12670;53.502;10.252;2022-09-09T06:12:31;8.70;;;5.47;;
16119;SDS011;12670;53.502;10.252;2022-09-09T06:15:34;12.13;;;5.00;;
16119;SDS011;12670;53.502;10.252;2022-09-09T06:18:38;6.97;;;5.07;;
16119;SDS011;12670;53.502;10.252;2022-09-09T06:21:40;11.83;;;5.43;;
16119;SDS011;12670;53.502;10.252;2022-09-09T06:24:43;5.87;;;4.63;;
16119;SDS011;12670;53.502;10.252;2022-09-09T06:27:48;8.27;;;4.93;;
16119;SDS011;12670;53.502;10.252;2022-09-09T06:30:56;13.03;;;5.20;;
16119;SDS011;12670;53.502;10.252;2022-09-09T06:34:01;8.40;;;5.07;;
16119;SDS011;12670;53.502;10.252;2022-09-09T06:37:03;9.00;;;4.90;;
16119;SDS011;12670;53.502;10.252;2022-09-09T06:40:07;8.87;;;5.03;;
16119;SDS011;12670;53.502;10.252;2022-09-09T06:43:10;9.03;;;4.53;;
16119;SDS011;12670;53.502;10.252;2022-09-09T06:46:14;8.23;;;4.50;;
16119;SDS011;12670;53.502;10.252;2022-09-09T06:49:20;8.40;;;4.90;;
16119;SDS011;12670;53.502;10.252;2022-09-09T06:52:23;7.90;;;4.30;;
16119;SDS011;12670;53.502;10.252;2022-09-09T06:55:26;11.47;;;4.63;;
16119;SDS011;12670;53.502;10.252;2022-09-09T06:58:29;7.13;;;4.43;;
16119;SDS011;12670;53.502;10.252;2022-09-09T07:01:33;8.93;;;4.10;;
16119;SDS011;12670;53.502;10.252;2022-09-09T07:04:38;7.13;;;3.87;;
16119;SDS011;12670;53.502;10.252;2022-09-09T07:07:41;6.93;;;4.43;;
16119;SDS011;12670;53.502;10.252;2022-09-09T07:10:44;5.70;;;3.90;;
16119;SDS011;12670;53.502;10.252;2022-09-09T07:13:46;7.27;;;3.80;;
16119;SDS011;12670;53.502;10.252;2022-09-09T07:16:49;6.67;;;3.80;;
16119;SDS011;12670;53.502;10.252;2022-09-09T07:19:56;11.73;;;3.97;;
16119;SDS011;12670;53.502;10.252;2022-09-09T07:22:58;5.17;;;3.53;;
16119;SDS011;12670;53.502;10.252;2022-09-09T07:26:01;5.37;;;3.80;;
16119;SDS011;12670;53.502;10.252;2022-09-09T07:29:04;9.87;;;3.90;;
16119;SDS011;12670;53.502;10.252;2022-09-09T07:32:06;8.60;;;3.63;;
16119;SDS011;12670;53.502;10.252;2022-09-09T07:35:10;11.83;;;3.80;;
16119;SDS011;12670;53.502;10.252;2022-09-09T07:38:13;6.90;;;3.60;;
16119;SDS011;12670;53.502;10.252;2022-09-09T07:41:17;8.63;;;3.63;;
16119;SDS011;12670;53.502;10.252;2022-09-09T07:44:22;4.50;;;3.23;;
16119;SDS011;12670;53.502;10.252;2022-09-09T07:47:25;9.97;;;3.93;;
16119;SDS011;12670;53.502;10.252;2022-09-09T07:50:29;9.23;;;3.50;;
16119;SDS011;12670;53.502;10.252;2022-09-09T07:53:32;4.73;;;2.93;;
16119;SDS011;12670;53.502;10.252;2022-09-09T07:56:35;5.27;;;2.77;;
16119;SDS011;12670;53.502;10.252;2022-09-09T07:59:40;6.93;;;3.33;;
16119;SDS011;12670;53.502;10.252;2022-09-09T08:02:43;5.47;;;3.10;;
16119;SDS011;12670;53.502;10.252;2022-09-09T08:05:46;7.63;;;3.20;;
16119;SDS011;12670;53.502;10.252;2022-09-09T08:08:49;6.20;;;2.80;;
16119;SDS011;12670;53.502;10.252;2022-09-09T08:11:53;10.40;;;3.00;;
16119;SDS011;12670;53.502;10.252;2022-09-09T08:14:57;6.33;;;2.57;;
16119;SDS011;12670;53.502;10.252;2022-09-09T08:18:00;5.43;;;3.20;;
16119;SDS011;12670;53.502;10.252;2022-09-09T08:21:09;8.77;;;2.47;;
16119;SDS011;12670;53.502;10.252;2022-09-09T08:24:13;7.00;;;2.70;;
16119;SDS011;12670;53.502;10.252;2022-09-09T08:27:16;6.07;;;2.30;;
16119;SDS011;12670;53.502;10.252;2022-09-09T08:30:18;5.37;;;2.57;;
16119;SDS011;12670;53.502;10.252;2022-09-09T08:33:22;6.33;;;2.30;;
16119;SDS011;12670;53.502;10.252;2022-09-09T08:36:28;4.40;;;2.50;;
16119;SDS011;12670;53.502;10.252;2022-09-09T08:39:34;4.57;;;2.70;;
16119;SDS011;12670;53.502;10.252;2022-09-09T08:42:37;4.17;;;2.20;;
16119;SDS011;12670;53.502;10.252;2022-09-09T08:45:49;4.43;;;2.30;;
16119;SDS011;12670;53.502;10.252;2022-09-09T08:49:02;4.63;;;2.13;;
16119;SDS011;12670;53.502;10.252;2022-09-09T08:52:17;11.27;;;2.20;;
16119;SDS011;12670;53.502;10.252;2022-09-09T08:55:25;5.97;;;2.10;;
16119;SDS011;12670;53.502;10.252;2022-09-09T08:58:38;7.03;;;2.30;;
16119;SDS011;12670;53.502;10.252;2022-09-09T09:01:50;4.40;;;1.97;;
16119;SDS011;12670;53.502;10.252;2022-09-09T09:05:06;2.73;;;2.00;;
16119;SDS011;12670;53.502;10.252;2022-09-09T09:08:20;4.77;;;2.10;;
16119;SDS011;12670;53.502;10.252;2022-09-09T09:11:34;4.87;;;1.83;;
16119;SDS011;12670;53.502;10.252;2022-09-09T09:14:39;4.00;;;1.93;;
16119;SDS011;12670;53.502;10.252;2022-09-09T09:17:45;7.10;;;1.63;;
16119;SDS011;12670;53.502;10.252;2022-09-09T09:20:50;5.00;;;2.20;;
16119;SDS011;12670;53.502;10.252;2022-09-09T09:23:59;4.13;;;1.93;;
16119;SDS011;12670;53.502;10.252;2022-09-09T09:27:07;3.97;;;1.70;;
16119;SDS011;12670;53.502;10.252;2022-09-09T09:30:15;4.97;;;2.00;;
16119;SDS011;12670;53.502;10.252;2022-09-09T09:33:32;5.37;;;1.90;;
16119;SDS011;12670;53.502;10.252;2022-09-09T09:36:42;5.97;;;1.90;;
16119;SDS011;12670;53.502;10.252;2022-09-09T09:39:48;3.23;;;1.80;;
16119;SDS011;12670;53.502;10.252;2022-09-09T09:43:16;8.93;;;1.70;;
16119;SDS011;12670;53.502;10.252;2022-09-09T09:46:22;4.73;;;1.90;;
16119;SDS011;12670;53.502;10.252;2022-09-09T09:49:27;4.87;;;2.00;;
16119;SDS011;12670;53.502;10.252;2022-09-09T09:52:30;3.20;;;1.70;;
16119;SDS011;12670;53.502;10.252;2022-09-09T09:55:44;5.77;;;1.97;;
16119;SDS011;12670;53.502;10.252;2022-09-09T09:58:52;6.40;;;2.22;;
16119;SDS011;12670;53.502;10.252;2022-09-09T10:02:05;6.10;;;2.03;;
16119;SDS011;12670;53.502;10.252;2022-09-09T10:05:16;4.63;;;1.98;;
16119;SDS011;12670;53.502;10.252;2022-09-09T10:08:27;3.38;;;1.90;;
16119;SDS011;12670;53.502;10.252;2022-09-09T10:11:35;3.38;;;1.80;;
16119;SDS011;12670;53.502;10.252;2022-09-09T10:14:46;3.42;;;1.90;;
16119;SDS011;12670;53.502;10.252;2022-09-09T10:18:00;8.50;;;1.80;;
16119;SDS011;12670;53.502;10.252;2022-09-09T10:21:20;5.78;;;1.92;;
16119;SDS011;12670;53.502;10.252;2022-09-09T10:28:15;4.97;;;1.67;;
16119;SDS011;12670;53.502;10.252;2022-09-09T10:31:31;3.40;;;1.35;;
16119;SDS011;12670;53.502;10.252;2022-09-09T10:34:47;5.38;;;1.40;;
16119;SDS011;12670;53.502;10.252;2022-09-09T10:41:33;4.18;;;1.40;;
16119;SDS011;12670;53.502;10.252;2022-09-09T10:44:49;3.50;;;1.40;;
16119;SDS011;12670;53.502;10.252;2022-09-09T10:51:33;7.93;;;1.50;;
16119;SDS011;12670;53.502;10.252;2022-09-09T10:54:46;4.22;;;1.45;;
16119;SDS011;12670;53.502;10.252;2022-09-09T10:57:58;6.00;;;1.90;;
16119;SDS011;12670;53.502;10.252;2022-09-09T11:01:09;4.10;;;1.40;;
16119;SDS011;12670;53.502;10.252;2022-09-09T11:04:19;3.20;;;1.25;;
16119;SDS011;12670;53.502;10.252;2022-09-09T11:07:26;4.43;;;1.45;;
16119;SDS011;12670;53.502;10.252;2022-09-09T11:10:36;4.32;;;1.65;;
16119;SDS011;12670;53.502;10.252;2022-09-09T11:13:43;4.03;;;1.45;;
16119;SDS011;12670;53.502;10.252;2022-09-09T11:16:55;5.38;;;1.60;;
16119;SDS011;12670;53.502;10.252;2022-09-09T11:20:01;3.25;;;1.40;;
16119;SDS011;12670;53.502;10.252;2022-09-09T11:23:04;5.47;;;1.40;;
16119;SDS011;12670;53.502;10.252;2022-09-09T11:26:14;2.92;;;1.25;;
16119;SDS011;12670;53.502;10.252;2022-09-09T11:29:33;4.82;;;1.63;;
16119;SDS011;12670;53.502;10.252;2022-09-09T11:33:04;2.30;;;1.23;;
16119;SDS011;12670;53.502;10.252;2022-09-09T11:36:34;2.67;;;1.30;;
16119;SDS011;12670;53.502;10.252;2022-09-09T11:39:58;3.90;;;1.83;;
16119;SDS011;12670;53.502;10.252;2022-09-09T11:43:12;7.63;;;3.35;;
16119;SDS011;12670;53.502;10.252;2022-09-09T11:46:16;12.52;;;6.53;;
16119;SDS011;12670;53.502;10.252;2022-09-09T11:49:27;7.78;;;3.33;;
16119;SDS011;12670;53.502;10.252;2022-09-09T11:52:35;6.10;;;2.28;;
16119;SDS011;12670;53.502;10.252;2022-09-09T11:55:40;4.18;;;1.88;;
16119;SDS011;12670;53.502;10.252;2022-09-09T11:58:43;4.68;;;2.22;;
16119;SDS011;12670;53.502;10.252;2022-09-09T12:01:56;13.90;;;7.75;;
16119;SDS011;12670;53.502;10.252;2022-09-09T12:05:02;7.15;;;2.10;;
16119;SDS011;12670;53.502;10.252;2022-09-09T12:08:09;9.40;;;3.70;;
16119;SDS011;12670;53.502;10.252;2022-09-09T12:11:25;3.08;;;1.90;;
16119;SDS011;12670;53.502;10.252;2022-09-09T12:14:34;5.53;;;2.80;;
16119;SDS011;12670;53.502;10.252;2022-09-09T12:17:41;6.07;;;2.25;;
16119;SDS011;12670;53.502;10.252;2022-09-09T12:20:51;5.90;;;2.88;;
16119;SDS011;12670;53.502;10.252;2022-09-09T12:23:59;11.43;;;3.90;;
16119;SDS011;12670;53.502;10.252;2022-09-09T12:27:07;9.73;;;4.22;;
16119;SDS011;12670;53.502;10.252;2022-09-09T12:30:18;11.25;;;4.55;;
16119;SDS011;12670;53.502;10.252;2022-09-09T12:33:22;5.10;;;2.28;;
16119;SDS011;12670;53.502;10.252;2022-09-09T12:36:27;4.78;;;1.80;;
16119;SDS011;12670;53.502;10.252;2022-09-09T12:39:35;6.45;;;2.53;;
16119;SDS011;12670;53.502;10.252;2022-09-09T12:42:44;7.22;;;2.08;;
16119;SDS011;12670;53.502;10.252;2022-09-09T12:45:47;3.05;;;1.60;;
16119;SDS011;12670;53.502;10.252;2022-09-09T12:48:51;5.35;;;2.10;;
16119;SDS011;12670;53.502;10.252;2022-09-09T12:51:58;8.35;;;3.35;;
16119;SDS011;12670;53.502;10.252;2022-09-09T12:55:02;8.27;;;3.88;;
16119;SDS011;12670;53.502;10.252;2022-09-09T12:58:07;5.15;;;2.20;;
16119;SDS011;12670;53.502;10.252;2022-09-09T13:01:18;5.78;;;2.70;;
16119;SDS011;12670;53.502;10.252;2022-09-09T13:04:24;9.40;;;2.15;;
16119;SDS011;12670;53.502;10.252;2022-09-09T13:07:28;4.28;;;1.83;;
16119;SDS011;12670;53.502;10.252;2022-09-09T13:10:31;4.93;;;1.50;;
16119;SDS011;12670;53.502;10.252;2022-09-09T13:13:53;3.40;;;1.67;;
16119;SDS011;12670;53.502;10.252;2022-09-09T13:16:58;4.57;;;1.80;;
16119;SDS011;12670;53.502;10.252;2022-09-09T13:20:04;31.02;;;15.77;;
16119;SDS011;12670;53.502;10.252;2022-09-09T13:23:09;4.90;;;2.90;;
16119;SDS011;12670;53.502;10.252;2022-09-09T13:26:21;9.88;;;3.70;;
16119;SDS011;12670;53.502;10.252;2022-09-09T13:29:27;10.30;;;3.53;;
16119;SDS011;12670;53.502;10.252;2022-09-09T13:32:30;4.40;;;1.90;;
16119;SDS011;12670;53.502;10.252;2022-09-09T13:35:33;6.35;;;2.45;;
16119;SDS011;12670;53.502;10.252;2022-09-09T13:38:38;5.60;;;1.30;;
16119;SDS011;12670;53.502;10.252;2022-09-09T13:41:43;5.28;;;2.80;;
16119;SDS011;12670;53.502;10.252;2022-09-09T13:44:46;5.28;;;2.05;;
16119;SDS011;12670;53.502;10.252;2022-09-09T13:47:49;3.80;;;1.50;;
16119;SDS011;12670;53.502;10.252;2022-09-09T13:50:57;6.72;;;2.00;;
16119;SDS011;12670;53.502;10.252;2022-09-09T13:54:02;2.50;;;1.35;;
16119;SDS011;12670;53.502;10.252;2022-09-09T13:57:05;5.32;;;1.83;;
16119;SDS011;12670;53.502;10.252;2022-09-09T14:00:18;4.27;;;1.60;;
16119;SDS011;12670;53.502;10.252;2022-09-09T14:03:21;6.43;;;2.37;;
16119;SDS011;12670;53.502;10.252;2022-09-09T14:06:24;6.63;;;2.80;;
16119;SDS011;12670;53.502;10.252;2022-09-09T14:09:28;6.47;;;2.70;;
16119;SDS011;12670;53.502;10.252;2022-09-09T14:12:30;5.50;;;2.03;;
16119;SDS011;12670;53.502;10.252;2022-09-09T14:15:33;4.47;;;2.20;;
16119;SDS011;12670;53.502;10.252;2022-09-09T14:18:35;4.63;;;1.83;;
16119;SDS011;12670;53.502;10.252;2022-09-09T14:21:39;6.33;;;2.40;;
16119;SDS011;12670;53.502;10.252;2022-09-09T14:24:43;5.53;;;2.40;;
16119;SDS011;12670;53.502;10.252;2022-09-09T14:27:46;8.10;;;2.97;;
16119;SDS011;12670;53.502;10.252;2022-09-09T14:30:48;12.77;;;5.23;;
16119;SDS011;12670;53.502;10.252;2022-09-09T14:33:51;8.53;;;3.07;;
16119;SDS011;12670;53.502;10.252;2022-09-09T14:36:54;11.57;;;5.50;;
16119;SDS011;12670;53.502;10.252;2022-09-09T14:39:58;8.63;;;3.10;;
16119;SDS011;12670;53.502;10.252;2022-09-09T14:43:01;6.07;;;2.20;;
16119;SDS011;12670;53.502;10.252;2022-09-09T14:46:06;5.03;;;2.20;;
16119;SDS011;12670;53.502;10.252;2022-09-09T14:49:10;7.23;;;2.70;;
16119;SDS011;12670;53.502;10.252;2022-09-09T14:52:13;9.17;;;2.50;;
16119;SDS011;12670;53.502;10.252;2022-09-09T14:55:18;8.83;;;2.47;;
16119;SDS011;12670;53.502;10.252;2022-09-09T14:58:22;10.03;;;2.63;;
16119;SDS011;12670;53.502;10.252;2022-09-09T15:01:25;5.60;;;2.70;;
16119;SDS011;12670;53.502;10.252;2022-09-09T15:04:28;6.83;;;2.97;;
16119;SDS011;12670;53.502;10.252;2022-09-09T15:07:31;7.17;;;2.90;;
16119;SDS011;12670;53.502;10.252;2022-09-09T15:10:36;8.93;;;2.67;;
16119;SDS011;12670;53.502;10.252;2022-09-09T15:13:41;8.90;;;3.30;;
16119;SDS011;12670;53.502;10.252;2022-09-09T15:16:44;12.63;;;2.80;;
16119;SDS011;12670;53.502;10.252;2022-09-09T15:19:47;5.90;;;2.50;;
16119;SDS011;12670;53.502;10.252;2022-09-09T15:22:51;9.97;;;3.80;;
16119;SDS011;12670;53.502;10.252;2022-09-09T15:25:55;4.63;;;2.30;;
16119;SDS011;12670;53.502;10.252;2022-09-09T15:28:58;5.57;;;2.80;;
16119;SDS011;12670;53.502;10.252;2022-09-09T15:32:01;5.73;;;2.83;;
16119;SDS011;12670;53.502;10.252;2022-09-09T15:35:04;11.30;;;3.77;;
16119;SDS011;12670;53.502;10.252;2022-09-09T15:38:07;10.87;;;2.90;;
16119;SDS011;12670;53.502;10.252;2022-09-09T15:41:11;7.30;;;2.80;;
16119;SDS011;12670;53.502;10.252;2022-09-09T15:44:15;8.33;;;3.00;;
16119;SDS011;12670;53.502;10.252;2022-09-09T15:47:17;4.47;;;2.67;;
16119;SDS011;12670;53.502;10.252;2022-09-09T15:50:21;7.53;;;2.60;;
16119;SDS011;12670;53.502;10.252;2022-09-09T15:53:23;20.83;;;11.23;;
16119;SDS011;12670;53.502;10.252;2022-09-09T15:56:28;6.33;;;2.67;;
16119;SDS011;12670;53.502;10.252;2022-09-09T15:59:33;7.60;;;2.77;;
16119;SDS011;12670;53.502;10.252;2022-09-09T16:02:36;12.00;;;4.43;;
16119;SDS011;12670;53.502;10.252;2022-09-09T16:05:38;39.00;;;17.97;;
16119;SDS011;12670;53.502;10.252;2022-09-09T16:08:41;14.63;;;4.00;;
16119;SDS011;12670;53.502;10.252;2022-09-09T16:11:47;6.30;;;2.23;;
16119;SDS011;12670;53.502;10.252;2022-09-09T16:14:49;3.97;;;1.90;;
16119;SDS011;12670;53.502;10.252;2022-09-09T16:17:52;5.87;;;2.30;;
16119;SDS011;12670;53.502;10.252;2022-09-09T16:20:55;3.10;;;1.90;;
16119;SDS011;12670;53.502;10.252;2022-09-09T16:23:59;8.53;;;3.90;;
16119;SDS011;12670;53.502;10.252;2022-09-09T16:27:04;4.60;;;2.23;;
16119;SDS011;12670;53.502;10.252;2022-09-09T16:30:08;4.83;;;2.30;;
16119;SDS011;12670;53.502;10.252;2022-09-09T16:33:11;4.87;;;2.10;;
16119;SDS011;12670;53.502;10.252;2022-09-09T16:36:16;7.33;;;2.40;;
16119;SDS011;12670;53.502;10.252;2022-09-09T16:39:20;3.83;;;2.00;;
16119;SDS011;12670;53.502;10.252;2022-09-09T16:42:24;4.80;;;1.60;;
16119;SDS011;12670;53.502;10.252;2022-09-09T16:45:26;4.47;;;2.00;;
16119;SDS011;12670;53.502;10.252;2022-09-09T16:48:30;5.30;;;2.30;;
16119;SDS011;12670;53.502;10.252;2022-09-09T16:51:34;11.43;;;2.57;;
16119;SDS011;12670;53.502;10.252;2022-09-09T16:54:38;4.33;;;1.87;;
16119;SDS011;12670;53.502;10.252;2022-09-09T16:57:42;5.40;;;2.23;;
16119;SDS011;12670;53.502;10.252;2022-09-09T17:00:45;4.10;;;2.10;;
16119;SDS011;12670;53.502;10.252;2022-09-09T17:03:51;4.13;;;2.20;;
16119;SDS011;12670;53.502;10.252;2022-09-09T17:07:01;3.40;;;1.90;;
16119;SDS011;12670;53.502;10.252;2022-09-09T17:10:04;4.90;;;2.17;;
16119;SDS011;12670;53.502;10.252;2022-09-09T17:13:08;8.83;;;2.70;;
16119;SDS011;12670;53.502;10.252;2022-09-09T17:16:11;5.27;;;2.20;;
16119;SDS011;12670;53.502;10.252;2022-09-09T17:19:15;5.17;;;2.47;;
16119;SDS011;12670;53.502;10.252;2022-09-09T17:22:18;5.70;;;2.20;;
16119;SDS011;12670;53.502;10.252;2022-09-09T17:25:22;4.77;;;2.50;;
16119;SDS011;12670;53.502;10.252;2022-09-09T17:28:27;4.80;;;2.50;;
16119;SDS011;12670;53.502;10.252;2022-09-09T17:31:32;6.73;;;2.40;;
16119;SDS011;12670;53.502;10.252;2022-09-09T17:34:35;3.03;;;2.30;;
16119;SDS011;12670;53.502;10.252;2022-09-09T17:37:39;3.93;;;2.27;;
16119;SDS011;12670;53.502;10.252;2022-09-09T17:40:41;4.03;;;2.37;;
16119;SDS011;12670;53.502;10.252;2022-09-09T17:43:45;3.27;;;2.40;;
16119;SDS011;12670;53.502;10.252;2022-09-09T17:46:48;5.70;;;2.43;;
16119;SDS011;12670;53.502;10.252;2022-09-09T17:49:51;3.50;;;2.60;;
16119;SDS011;12670;53.502;10.252;2022-09-09T17:52:53;5.20;;;2.63;;
16119;SDS011;12670;53.502;10.252;2022-09-09T17:56:01;8.77;;;2.93;;
16119;SDS011;12670;53.502;10.252;2022-09-09T17:59:06;4.03;;;2.60;;
16119;SDS011;12670;53.502;10.252;2022-09-09T18:02:10;6.77;;;3.17;;
16119;SDS011;12670;53.502;10.252;2022-09-09T18:05:14;6.47;;;2.83;;
16119;SDS011;12670;53.502;10.252;2022-09-09T18:08:17;4.40;;;2.70;;
16119;SDS011;12670;53.502;10.252;2022-09-09T18:11:20;6.23;;;2.87;;
16119;SDS011;12670;53.502;10.252;2022-09-09T18:14:25;4.17;;;2.77;;
16119;SDS011;12670;53.502;10.252;2022-09-09T18:17:30;5.37;;;2.87;;
16119;SDS011;12670;53.502;10.252;2022-09-09T18:20:33;10.30;;;2.70;;
16119;SDS011;12670;53.502;10.252;2022-09-09T18:23:35;3.93;;;2.53;;